Weather History for Beatrice, NE

Change the Weather History Date:

Friday, May 24, 2013

  Actual Average Record
Temperature  
Mean Temperature 63 °F -  
Max Temperature 75 °F 79 °F 98 °F (1967)
Min Temperature 51 °F 53 °F 42 °F (1966)
Degree Days  
Heating Degree Days 2    
Growing Degree Days 13 (Base 50)    
Moisture  
Dew Point 51 °F    
Average Humidity 65    
Maximum Humidity 97    
Minimum Humidity 44    
Precipitation  
Precipitation 0.00 in - - ()
Sea Level Pressure  
Sea Level Pressure 30.18 in    
Wind  
Wind Speed 9 mph (SSE)    
Max Wind Speed 24 mph    
Max Gust Speed 30 mph    
Visibility 10 miles    
Events      
Averages and records for this station are not official NWS values.
T = Trace of Precipitation, MM = Missing Value Source: NWS Daily Summary

Daily Weather History Graph

Daily Weather History Graph

Search for Another Location

Airport:

Trip Planner

Search our weather history database for the weather conditions in past years. The results will help you decide how hot, cold, wet, or windy it might be!

Date:

Astronomy

May. 24, 2013 Rise Set
Actual Time 6:03 AM CDT 8:44 PM CDT
Civil Twilight 5:31 AM CDT 9:16 PM CDT
Nautical Twilight 4:52 AM CDT 9:56 PM CDT
Astronomical Twilight 4:07 AM CDT 10:41 PM CDT
Moon 8:28 PM CDT (5/24) 5:36 AM CDT (5/24)
Length of Visible Light 15h 44m
Length of Day
14h 41m
Full, 100% of the Moon is Illuminated
May 24
Full
May 24
Full
May 31
Last Quarter
Jun 8
New
Jun 16
First Quarter

Hourly Weather History & Observations

Time (CDT) Temp. Dew Point Humidity Pressure Visibility Wind Dir Wind Speed Gust Speed Precip Events Conditions
12:15 AM 55.9 °F 49.6 °F 79% 30.23 in 10.0 mi ESE 3.5 mph - N/A   Clear
12:35 AM 56.5 °F 50.0 °F 79% 30.23 in 10.0 mi ESE 3.5 mph - N/A   Clear
12:55 AM 54.1 °F 49.5 °F 84% 30.24 in 10.0 mi South 3.5 mph - N/A   Clear
1:15 AM 52.9 °F 49.5 °F 88% 30.24 in 10.0 mi Calm Calm - N/A   Clear
1:35 AM 54.7 °F 51.1 °F 88% 30.23 in 10.0 mi East 3.5 mph - N/A   Clear
1:55 AM 53.2 °F 50.5 °F 91% 30.23 in 10.0 mi East 5.8 mph - N/A   Clear
2:15 AM 52.7 °F 50.2 °F 91% 30.22 in 10.0 mi ESE 4.6 mph - N/A   Clear
2:35 AM 53.1 °F 50.5 °F 91% 30.22 in 10.0 mi ESE 6.9 mph - N/A   Clear
2:55 AM 54.0 °F 51.1 °F 90% 30.22 in 10.0 mi SE 5.8 mph - N/A   Clear
3:15 AM 54.5 °F 51.3 °F 89% 30.23 in 10.0 mi SE 5.8 mph - N/A   Clear
3:35 AM 52.9 °F 50.7 °F 92% 30.24 in 10.0 mi South 4.6 mph - N/A   Clear
3:55 AM 52.9 °F 50.9 °F 93% 30.24 in 10.0 mi SSE 4.6 mph - N/A   Clear
4:15 AM 52.0 °F 50.4 °F 94% 30.25 in 10.0 mi South 3.5 mph - N/A   Clear
4:35 AM 52.3 °F 50.5 °F 94% 30.26 in 10.0 mi South 5.8 mph - N/A   Clear
4:55 AM 53.4 °F 51.4 °F 93% 30.26 in 10.0 mi SSE 4.6 mph - N/A   Mostly Cloudy
5:15 AM 53.8 °F 51.8 °F 93% 30.26 in 10.0 mi SSE 5.8 mph - N/A   Overcast
5:35 AM 53.8 °F 51.8 °F 93% 30.26 in 10.0 mi SE 4.6 mph - N/A   Mostly Cloudy
5:55 AM 52.3 °F 50.9 °F 95% 30.26 in 10.0 mi ESE 3.5 mph - N/A   Mostly Cloudy
6:15 AM 51.8 °F 50.7 °F 96% 30.26 in 10.0 mi ESE 3.5 mph - N/A   Mostly Cloudy
6:35 AM 51.4 °F 50.5 °F 97% 30.26 in 10.0 mi ESE 3.5 mph - N/A   Scattered Clouds
6:55 AM 52.7 °F 51.4 °F 95% 30.27 in 10.0 mi SE 4.6 mph - N/A   Mostly Cloudy
7:15 AM 55.2 °F 52.0 °F 89% 30.27 in 10.0 mi SE 9.2 mph - N/A   Overcast
7:35 AM 56.3 °F 51.8 °F 85% 30.27 in 10.0 mi SSE 10.4 mph - N/A   Overcast
7:55 AM 57.9 °F 51.4 °F 79% 30.27 in 10.0 mi SE 9.2 mph - N/A   Mostly Cloudy
8:15 AM 60.1 °F 51.1 °F 72% 30.26 in 10.0 mi SSE 12.7 mph 18.4 mph N/A   Mostly Cloudy
8:35 AM 60.6 °F 50.4 °F 69% 30.27 in 10.0 mi SE 10.4 mph 16.1 mph N/A   Mostly Cloudy
8:55 AM 61.7 °F 48.0 °F 61% 30.27 in 10.0 mi SSE 16.1 mph 24.2 mph N/A   Mostly Cloudy
9:15 AM 61.7 °F 48.7 °F 62% 30.27 in 10.0 mi SSE 13.8 mph 23.0 mph N/A   Mostly Cloudy
9:35 AM 63.7 °F 48.2 °F 57% 30.26 in 10.0 mi SSE 15.0 mph 21.9 mph N/A   Mostly Cloudy
9:55 AM 64.6 °F 47.1 °F 53% 30.24 in 10.0 mi SSE 15.0 mph 26.5 mph N/A   Scattered Clouds
10:15 AM 66.2 °F 45.5 °F 47% 30.23 in 10.0 mi SSE 20.7 mph - N/A   Clear
10:35 AM 66.0 °F 46.2 °F 49% 30.23 in 10.0 mi SE 20.7 mph 26.5 mph N/A   Clear
10:55 AM 66.6 °F 48.2 °F 52% 30.24 in 10.0 mi SE 18.4 mph 23.0 mph N/A   Clear
11:15 AM 69.6 °F 49.1 °F 48% 30.24 in 10.0 mi SSE 17.3 mph 24.2 mph N/A   Scattered Clouds
11:35 AM 68.4 °F 47.8 °F 48% 30.24 in 10.0 mi SSE 18.4 mph 25.3 mph N/A   Mostly Cloudy
11:55 AM 69.4 °F 48.7 °F 48% 30.24 in 10.0 mi South 13.8 mph 23.0 mph N/A   Overcast
12:15 PM 69.3 °F 49.1 °F 49% 30.23 in 10.0 mi SSE 13.8 mph 20.7 mph N/A   Overcast
12:35 PM 70.3 °F 49.5 °F 47% 30.23 in 10.0 mi SSE 13.8 mph 20.7 mph N/A   Overcast
12:55 PM 69.8 °F 49.3 °F 48% 30.23 in 10.0 mi SSE 15.0 mph 23.0 mph N/A   Overcast
1:15 PM 70.0 °F 49.5 °F 48% 30.22 in 10.0 mi SSE 12.7 mph 24.2 mph N/A   Overcast
1:35 PM 70.7 °F 49.5 °F 47% 30.22 in 10.0 mi SSE 13.8 mph 20.7 mph N/A   Overcast
1:55 PM 71.1 °F 50.7 °F 49% 30.21 in 10.0 mi South 16.1 mph - N/A   Overcast
2:15 PM 71.2 °F 50.5 °F 48% 30.20 in 10.0 mi South 13.8 mph 24.2 mph N/A   Overcast
2:35 PM 71.1 °F 49.8 °F 47% 30.19 in 10.0 mi SSE 17.3 mph - N/A   Overcast
2:55 PM 72.1 °F 50.5 °F 46% 30.19 in 10.0 mi SSE 18.4 mph - N/A   Overcast
3:15 PM 72.3 °F 50.2 °F 46% 30.17 in 10.0 mi SSE 17.3 mph 23.0 mph N/A   Overcast
3:35 PM 72.7 °F 50.7 °F 46% 30.16 in 10.0 mi SSE 17.3 mph 21.9 mph N/A   Overcast
3:55 PM 74.3 °F 51.6 °F 45% 30.14 in 10.0 mi SE 18.4 mph 23.0 mph N/A   Mostly Cloudy
4:15 PM 74.3 °F 51.4 °F 45% 30.12 in 10.0 mi SSE 17.3 mph 28.8 mph N/A   Scattered Clouds
4:35 PM 75.4 °F 52.0 °F 44% 30.11 in 10.0 mi South 20.7 mph 27.6 mph N/A   Clear
4:55 PM 74.8 °F 52.0 °F 45% 30.11 in 10.0 mi SSE 19.6 mph 24.2 mph N/A   Clear
5:15 PM 74.7 °F 52.2 °F 45% 30.10 in 10.0 mi SSE 21.9 mph 27.6 mph N/A   Clear
5:35 PM 74.7 °F 52.3 °F 46% 30.10 in 10.0 mi SSE 15.0 mph 25.3 mph N/A   Clear
5:55 PM 75.4 °F 52.5 °F 45% 30.09 in 10.0 mi SSE 16.1 mph 24.2 mph N/A   Clear
6:15 PM 75.4 °F 52.5 °F 45% 30.07 in 10.0 mi SSE 17.3 mph 25.3 mph N/A   Clear
6:35 PM 75.0 °F 52.9 °F 46% 30.06 in 10.0 mi SSE 19.6 mph 24.2 mph N/A   Clear
6:55 PM 73.4 °F 52.7 °F 48% 30.06 in 10.0 mi SSE 11.5 mph 21.9 mph N/A   Clear
7:15 PM 73.4 °F 53.6 °F 50% 30.06 in 10.0 mi South 19.6 mph 24.2 mph N/A   Scattered Clouds
7:35 PM 72.9 °F 54.0 °F 51% 30.07 in 10.0 mi South 12.7 mph 19.6 mph N/A   Scattered Clouds
7:55 PM 72.5 °F 54.1 °F 52% 30.05 in 10.0 mi SSE 13.8 mph - N/A   Scattered Clouds
8:15 PM 72.0 °F 53.8 °F 53% 30.04 in 10.0 mi SSE 17.3 mph 24.2 mph N/A   Scattered Clouds
8:35 PM 71.1 °F 54.0 °F 55% 30.03 in 10.0 mi SSE 17.3 mph 23.0 mph N/A   Clear
8:55 PM 70.3 °F 54.1 °F 56% 30.02 in 10.0 mi SSE 24.2 mph 29.9 mph N/A   Clear
9:15 PM 70.0 °F 54.5 °F 58% 30.03 in 10.0 mi South 18.4 mph 29.9 mph N/A   Clear
9:35 PM 69.8 °F 54.3 °F 58% 30.03 in 10.0 mi South 17.3 mph 20.7 mph N/A   Clear
9:55 PM 69.4 °F 54.1 °F 58% 30.04 in 10.0 mi South 20.7 mph 26.5 mph N/A   Clear
10:15 PM 68.9 °F 54.5 °F 60% 30.06 in 10.0 mi SSE 18.4 mph 25.3 mph N/A   Clear
10:35 PM 68.9 °F 54.5 °F 60% 30.07 in 10.0 mi SSE 18.4 mph 24.2 mph N/A   Scattered Clouds
10:55 PM 68.2 °F 54.5 °F 62% 30.08 in 10.0 mi SSE 13.8 mph 23.0 mph N/A   Scattered Clouds
11:15 PM 68.2 °F 54.9 °F 62% 30.09 in 10.0 mi SSE 13.8 mph 20.7 mph N/A   Scattered Clouds
11:35 PM 67.6 °F 54.9 °F 64% 30.09 in 10.0 mi SSE 11.5 mph 17.3 mph N/A   Scattered Clouds
11:55 PM 67.3 °F 54.9 °F 64% 30.08 in 10.0 mi SSE 11.5 mph - N/A   Scattered Clouds